Eads, Tennessee
Current Conditions -  °F | °C
As of 10:50 AM on Thursday 23 Oct 2014 (Local Time) from KNQA Reporting Station
Broken Clouds Broken Clouds  
Wind Chill: 15°   Ceiling: 25000
Heat Index: 15°   Visibility: 10mi
Dew Point:   Wind: 6mph
Humidity: 63%   Direction: NA
Pressure: 30.21"   Gusts: NA
Location:  35.2°N, 89.65°W
Report Text: KNQA 231550Z VRB05KT 10SM SCT150 BKN250 15/08 A3021
Loading
Personal Weather Stations






























Interactive Weather Map
Tropical Storm Tracking
New forecast layout! Learn more

10-Day Weather Forecast

Advertisements
Track Severe Weather on mobile